Time;durP1;ratioP1;P1;durP2;ratioP2;P2;SDS_P1;SDS_P2;PMS_P1;PMS_P2;Temp;Humidity;BMP_temperature;BMP_pressure;BME280_temperature;BME280_humidity;BME280_pressure;Samples;Min_cycle;Max_cycle;Signal;HPM_P1;HPM_P2
2022/11/04 00:00:22;;;;;;;2.00;1.75;;;10.20;99.90;;;;;;5100498;28;20043;-77
2022/11/04 00:02:48;;;;;;;2.83;1.58;;;10.10;99.90;;;;;;5096245;28;20016;-76
2022/11/04 00:05:13;;;;;;;3.17;1.90;;;10.10;99.90;;;;;;5094391;28;20189;-77
2022/11/04 00:12:23;;;;;;;1.13;1.00;;;10.10;99.90;;;;;;5090078;28;20362;-76
2022/11/04 00:13:09;;;;;;;1.88;1.20;;;10.10;99.90;;;;;;5093847;28;20063;-76
2022/11/04 00:18:21;;;;;;;1.15;0.85;;;10.10;99.90;;;;;;5093876;28;20085;-74
2022/11/04 00:28:59;;;;;;;1.40;1.10;;;10.00;99.90;;;;;;5094119;28;20031;-77
2022/11/04 00:34:08;;;;;;;2.28;1.10;;;10.00;99.90;;;;;;5092808;28;20068;-78
2022/11/04 00:36:34;;;;;;;1.13;0.98;;;10.00;99.90;;;;;;5093701;28;20123;-75
2022/11/04 00:38:59;;;;;;;1.33;1.10;;;10.10;99.90;;;;;;5094403;28;20043;-75
2022/11/04 00:41:25;;;;;;;1.58;1.05;;;10.10;99.90;;;;;;5093538;28;20686;-75
2022/11/04 00:43:56;;;;;;;0.80;0.80;;;10.10;99.90;;;;;;5093996;28;20028;-76
2022/11/04 00:46:22;;;;;;;1.10;0.90;;;10.10;99.90;;;;;;5093329;28;20020;-76
2022/11/04 00:48:48;;;;;;;1.98;0.95;;;10.10;99.90;;;;;;5076028;28;20346;-77
2022/11/04 00:51:13;;;;;;;2.17;1.02;;;10.10;99.90;;;;;;5092559;28;20028;-76
2022/11/04 00:53:39;;;;;;;2.03;1.17;;;10.10;99.90;;;;;;5094171;28;20023;-75
2022/11/04 00:56:05;;;;;;;1.27;1.08;;;10.10;99.90;;;;;;5093545;28;20024;-78
2022/11/04 00:58:30;;;;;;;1.70;1.20;;;10.10;99.90;;;;;;5093589;28;20024;-76
2022/11/04 01:00:56;;;;;;;2.03;1.30;;;10.10;99.90;;;;;;5093281;28;20066;-78
2022/11/04 01:03:22;;;;;;;1.33;1.10;;;10.10;99.90;;;;;;5093475;28;20032;-75
2022/11/04 01:05:47;;;;;;;1.50;1.40;;;10.10;99.90;;;;;;5092615;28;20070;-76
2022/11/04 01:08:13;;;;;;;3.67;1.27;;;10.00;99.90;;;;;;5091812;28;20388;-77
2022/11/04 01:10:43;;;;;;;2.38;1.08;;;10.10;99.90;;;;;;5074595;28;20024;-75
2022/11/04 01:13:09;;;;;;;2.05;0.90;;;10.10;99.90;;;;;;5092716;28;20020;-75
2022/11/04 01:15:36;;;;;;;2.28;0.93;;;10.10;99.90;;;;;;5093188;28;20032;-76
2022/11/04 01:18:02;;;;;;;1.30;0.98;;;10.10;99.90;;;;;;5093292;28;20062;-75
2022/11/04 01:20:28;;;;;;;0.95;0.88;;;10.10;99.90;;;;;;5074404;28;20020;-75
2022/11/04 01:22:54;;;;;;;1.42;0.85;;;10.20;99.90;;;;;;5093376;28;20042;-75
2022/11/04 01:25:19;;;;;;;4.18;0.93;;;10.20;99.90;;;;;;5092202;28;20476;-74
2022/11/04 01:27:45;;;;;;;0.82;0.82;;;10.20;99.90;;;;;;5093335;28;20026;-75
2022/11/04 01:30:11;;;;;;;2.33;0.88;;;10.20;99.90;;;;;;5092057;28;20051;-75
2022/11/04 01:32:36;;;;;;;1.17;1.02;;;10.20;99.90;;;;;;5092752;28;20020;-75
2022/11/04 01:35:02;;;;;;;1.30;1.10;;;10.20;99.90;;;;;;5092954;28;20027;-76
2022/11/04 01:37:28;;;;;;;1.40;0.90;;;10.10;99.90;;;;;;5073567;28;20485;-77
2022/11/04 01:39:53;;;;;;;1.48;1.10;;;10.10;99.90;;;;;;5092683;28;20385;-76
2022/11/04 01:42:22;;;;;;;1.55;1.10;;;10.10;99.90;;;;;;5092219;28;20020;-73
2022/11/04 01:44:54;;;;;;;1.10;0.95;;;10.10;99.90;;;;;;5092632;28;20028;-76
2022/11/04 01:47:29;;;;;;;0.70;0.70;;;10.00;99.90;;;;;;5092222;28;20032;-77
2022/11/04 01:50:09;;;;;;;5.05;1.30;;;10.00;99.90;;;;;;5092832;28;20058;-76
2022/11/04 01:52:50;;;;;;;1.70;1.10;;;10.00;99.90;;;;;;5093479;28;20419;-76
2022/11/04 01:55:17;;;;;;;;;;;10.00;99.90;;;;;;5092022;28;20071;-76
2022/11/04 01:57:47;;;;;;;1.05;0.88;;;10.00;99.90;;;;;;5092819;28;20301;-76
2022/11/04 02:00:14;;;;;;;1.23;1.13;;;10.00;99.90;;;;;;5091131;28;20027;-76
2022/11/04 02:02:54;;;;;;;1.25;0.95;;;9.90;99.90;;;;;;5091631;28;20032;-75
2022/11/04 02:05:21;;;;;;;1.70;1.17;;;9.90;99.90;;;;;;5091226;28;20047;-75
2022/11/04 02:07:50;;;;;;;0.77;0.77;;;9.90;99.90;;;;;;5091274;28;20506;-75
2022/11/04 02:10:19;;;;;;;1.10;1.00;;;9.80;99.90;;;;;;5090710;28;20122;-75
2022/11/04 02:12:50;;;;;;;1.27;0.80;;;9.80;99.90;;;;;;5092258;28;20415;-75
2022/11/04 02:15:24;;;;;;;1.40;0.80;;;9.80;99.90;;;;;;5072194;28;20427;-76
2022/11/04 02:18:01;;;;;;;2.10;1.10;;;9.70;99.90;;;;;;5088510;28;20118;-75
2022/11/04 02:21:04;;;;;;;1.00;0.85;;;9.70;99.90;;;;;;5091158;28;20031;-75
2022/11/04 02:23:57;;;;;;;1.42;1.08;;;9.70;99.90;;;;;;5081211;28;20055;-76
2022/11/04 02:26:29;;;;;;;0.75;0.68;;;9.60;99.90;;;;;;5072646;28;20028;-75
2022/11/04 02:29:26;;;;;;;1.15;0.70;;;9.60;99.90;;;;;;5074011;28;20043;-76
2022/11/04 02:32:22;;;;;;;2.35;1.48;;;9.60;99.90;;;;;;5072779;28;20024;-76
2022/11/04 02:35:10;;;;;;;1.52;0.80;;;9.60;99.90;;;;;;5062233;28;20020;-76
2022/11/04 02:37:57;;;;;;;1.17;0.85;;;9.50;99.90;;;;;;5091632;28;20506;-76
2022/11/04 02:40:34;;;;;;;0.70;0.70;;;9.50;99.90;;;;;;5090990;28;20477;-75
2022/11/04 02:43:20;;;;;;;2.15;0.80;;;9.50;99.90;;;;;;5091604;28;20108;-75
2022/11/04 02:45:50;;;;;;;1.58;0.73;;;9.40;99.90;;;;;;5091436;28;20027;-75
2022/11/04 02:48:34;;;;;;;1.05;0.73;;;9.30;99.90;;;;;;5072676;28;20040;-75
2022/11/04 02:51:26;;;;;;;2.20;0.80;;;9.30;99.90;;;;;;5091327;28;20048;-75
2022/11/04 02:54:06;;;;;;;0.73;0.60;;;9.20;99.90;;;;;;5091863;28;20032;-75
2022/11/04 02:56:37;;;;;;;1.70;0.60;;;9.30;99.90;;;;;;5091302;28;20025;-76
2022/11/04 02:59:10;;;;;;;1.40;0.50;;;9.20;99.90;;;;;;5092044;28;20461;-76
2022/11/04 03:01:40;;;;;;;0.55;0.52;;;9.20;99.90;;;;;;5091783;28;20063;-74
2022/11/04 03:04:20;;;;;;;0.65;0.65;;;9.20;99.90;;;;;;5072776;28;20464;-80
2022/11/04 03:06:49;;;;;;;2.40;0.85;;;9.10;99.90;;;;;;5091163;28;20036;-74
2022/11/04 03:09:17;;;;;;;0.98;0.82;;;9.10;99.90;;;;;;5072079;28;20472;-75
2022/11/04 03:11:46;;;;;;;1.25;0.57;;;9.10;99.90;;;;;;5091607;28;20028;-74
2022/11/04 03:14:25;;;;;;;1.42;0.60;;;9.00;99.90;;;;;;5090294;28;20032;-75
2022/11/04 03:16:56;;;;;;;2.85;0.82;;;8.90;99.90;;;;;;5091417;28;20020;-74
2022/11/04 03:19:39;;;;;;;;;;;8.90;99.90;;;;;;5090664;28;20016;-74
2022/11/04 03:22:15;;;;;;;1.20;0.60;;;8.80;99.90;;;;;;5072924;28;20361;-76
2022/11/04 03:24:44;;;;;;;1.70;0.70;;;8.80;99.90;;;;;;5090801;28;20101;-75
2022/11/04 03:27:36;;;;;;;1.00;0.57;;;8.80;99.90;;;;;;5082811;28;20032;-75
2022/11/04 03:30:13;;;;;;;1.75;0.57;;;8.80;99.90;;;;;;5066851;28;20035;-75
2022/11/04 03:32:54;;;;;;;1.80;0.70;;;8.80;99.90;;;;;;5095358;28;20032;-75
2022/11/04 03:35:20;;;;;;;1.20;0.55;;;8.80;99.90;;;;;;5094029;28;20031;-75
2022/11/04 03:37:47;;;;;;;1.35;0.50;;;8.70;99.90;;;;;;5095127;28;20040;-74
2022/11/04 03:40:14;;;;;;;0.85;0.70;;;8.70;99.90;;;;;;5075960;28;20039;-75
2022/11/04 03:42:46;;;;;;;1.10;0.80;;;8.70;99.90;;;;;;5094982;28;20024;-74
2022/11/04 03:45:12;;;;;;;0.80;0.70;;;8.70;99.90;;;;;;5075840;28;20024;-75
2022/11/04 03:47:40;;;;;;;2.17;0.82;;;8.60;99.90;;;;;;5094836;28;20361;-75
2022/11/04 03:50:11;;;;;;;6.35;0.70;;;8.60;99.90;;;;;;5098187;28;20036;-78
2022/11/04 03:52:38;;;;;;;1.30;0.60;;;8.60;99.90;;;;;;5079824;28;20024;-74
2022/11/04 03:55:05;;;;;;;0.80;0.75;;;8.60;99.90;;;;;;5097436;28;20047;-74
2022/11/04 03:58:02;;;;;;;1.88;0.70;;;8.60;99.90;;;;;;5102294;28;20028;-75
2022/11/04 04:00:34;;;;;;;1.00;0.68;;;8.50;99.90;;;;;;5102668;28;20715;-74
2022/11/04 04:03:05;;;;;;;2.42;0.60;;;8.50;99.90;;;;;;5085305;28;20453;-76
2022/11/04 04:05:48;;;;;;;0.85;0.30;;;8.50;99.90;;;;;;5094680;28;20028;-75
2022/11/04 04:08:17;;;;;;;1.35;0.90;;;8.40;99.90;;;;;;5076640;28;20715;-76
2022/11/04 04:11:10;;;;;;;0.40;0.40;;;8.40;99.90;;;;;;5094907;28;20081;-76
2022/11/04 04:13:54;;;;;;;0.57;0.40;;;8.40;99.90;;;;;;5082347;28;20020;-76
2022/11/04 04:16:31;;;;;;;1.85;0.77;;;8.30;99.90;;;;;;5093562;28;20145;-76
2022/11/04 04:19:13;;;;;;;1.85;0.50;;;8.20;99.90;;;;;;5094942;28;20107;-75
2022/11/04 04:21:54;;;;;;;1.10;0.70;;;8.20;99.90;;;;;;5089402;28;20020;-75
2022/11/04 04:29:53;;;;;;;1.23;0.73;;;8.00;99.90;;;;;;5082932;28;20395;-77
2022/11/04 04:32:23;;;;;;;0.77;0.52;;;8.10;99.90;;;;;;5093975;28;20032;-75
2022/11/04 04:34:48;;;;;;;1.50;0.60;;;8.00;99.90;;;;;;5093983;28;20077;-76
2022/11/04 04:37:20;;;;;;;1.48;0.90;;;8.00;99.90;;;;;;5092670;28;20489;-76
2022/11/04 04:45:51;;;;;;;3.00;0.70;;;8.00;99.90;;;;;;5047536;28;20043;-74
2022/11/04 04:48:17;;;;;;;2.05;0.70;;;8.00;99.90;;;;;;5100227;28;20482;-77
2022/11/04 04:50:48;;;;;;;0.65;0.38;;;8.00;99.90;;;;;;5100526;28;20095;-76
2022/11/04 04:53:14;;;;;;;3.00;0.70;;;7.90;99.90;;;;;;5080288;28;20457;-78
2022/11/04 04:55:39;;;;;;;2.78;0.90;;;7.90;99.90;;;;;;5097488;28;20020;-76
2022/11/04 04:58:05;;;;;;;2.75;0.70;;;7.90;99.90;;;;;;5095816;28;20032;-80
2022/11/04 05:00:32;;;;;;;2.92;0.73;;;7.80;99.90;;;;;;5093627;28;20032;-76
2022/11/04 05:02:58;;;;;;;1.77;0.70;;;7.80;99.90;;;;;;5094301;28;20487;-76
2022/11/04 05:05:24;;;;;;;3.42;1.02;;;7.80;99.90;;;;;;5092414;28;20032;-76
2022/11/04 05:07:50;;;;;;;6.22;1.15;;;7.70;99.90;;;;;;5094113;28;20028;-78
2022/11/04 05:10:16;;;;;;;3.85;0.90;;;7.70;99.90;;;;;;5092933;28;20094;-76
2022/11/04 05:15:28;;;;;;;1.23;0.93;;;7.70;99.90;;;;;;5093465;28;20105;-79
2022/11/04 05:17:55;;;;;;;1.08;0.80;;;7.60;99.90;;;;;;5093916;28;20040;-75
2022/11/04 05:20:21;;;;;;;0.88;0.68;;;7.60;99.90;;;;;;5074394;28;20023;-74
2022/11/04 05:22:46;;;;;;;3.72;1.00;;;7.50;99.90;;;;;;5092973;28;20040;-75
2022/11/04 05:25:12;;;;;;;5.07;1.00;;;7.50;99.90;;;;;;5092194;28;20020;-75
2022/11/04 05:27:38;;;;;;;4.13;1.20;;;7.50;99.90;;;;;;5093526;28;20032;-75
2022/11/04 05:30:04;;;;;;;2.75;1.20;;;7.50;99.90;;;;;;5092405;28;20026;-79
2022/11/04 05:32:32;;;;;;;2.00;0.60;;;7.60;99.90;;;;;;5093028;28;20477;-80
2022/11/04 05:34:58;;;;;;;2.45;0.68;;;7.60;99.90;;;;;;5093299;28;20427;-78
2022/11/04 05:37:24;;;;;;;1.85;0.70;;;7.70;99.90;;;;;;5092443;28;20044;-77
2022/11/04 05:39:49;;;;;;;5.43;1.20;;;7.60;99.90;;;;;;5093188;28;20382;-76
2022/11/04 05:42:15;;;;;;;7.15;1.20;;;7.70;99.90;;;;;;5092951;28;20048;-78
2022/11/04 05:44:40;;;;;;;3.95;0.90;;;7.70;99.90;;;;;;5092650;28;20427;-73
2022/11/04 05:47:06;;;;;;;2.53;0.70;;;7.70;99.90;;;;;;5092201;28;20027;-79
2022/11/04 05:49:32;;;;;;;1.58;0.70;;;7.70;99.90;;;;;;5092820;28;20020;-75
2022/11/04 05:51:58;;;;;;;2.22;0.80;;;7.70;99.90;;;;;;5092007;28;20028;-75
2022/11/04 05:54:23;;;;;;;2.15;0.80;;;7.70;99.90;;;;;;5085704;28;20659;-75
2022/11/04 05:56:49;;;;;;;8.90;0.90;;;7.70;99.90;;;;;;5089435;28;20024;-75
2022/11/04 05:59:15;;;;;;;5.70;0.90;;;7.70;99.90;;;;;;5091819;28;20044;-72
2022/11/04 06:01:42;;;;;;;2.05;0.75;;;7.70;99.90;;;;;;5092968;28;20043;-75
2022/11/04 06:04:13;;;;;;;2.55;0.90;;;7.70;99.90;;;;;;5091836;28;20028;-78
2022/11/04 06:06:39;;;;;;;3.40;0.85;;;7.80;99.90;;;;;;5092677;28;20102;-75
2022/11/04 06:09:04;;;;;;;1.08;0.75;;;7.80;99.90;;;;;;5092491;28;20119;-78
2022/11/04 06:11:31;;;;;;;3.13;0.90;;;7.80;99.90;;;;;;5091837;28;20381;-75
2022/11/04 06:13:57;;;;;;;2.60;0.80;;;7.80;99.90;;;;;;5091199;28;20085;-75
2022/11/04 06:16:23;;;;;;;3.53;1.17;;;7.80;99.90;;;;;;5090947;28;20028;-75
2022/11/04 06:18:49;;;;;;;1.70;0.80;;;7.80;99.90;;;;;;5092494;28;20109;-75
2022/11/04 06:21:14;;;;;;;2.05;0.80;;;7.70;99.90;;;;;;5089333;28;20076;-76
2022/11/04 06:23:41;;;;;;;3.28;1.00;;;7.70;99.90;;;;;;5092186;28;20062;-76
2022/11/04 06:26:07;;;;;;;1.50;0.73;;;7.70;99.90;;;;;;5090510;28;20089;-81
2022/11/04 06:28:33;;;;;;;2.85;0.70;;;7.60;99.90;;;;;;5091507;28;20032;-75
2022/11/04 06:31:00;;;;;;;4.00;0.80;;;7.60;99.90;;;;;;5072952;28;20416;-76
2022/11/04 06:33:27;;;;;;;1.02;0.80;;;7.60;99.90;;;;;;5092016;28;20103;-75
2022/11/04 06:35:57;;;;;;;2.05;1.00;;;7.70;99.90;;;;;;5091605;28;20533;-75
2022/11/04 06:38:23;;;;;;;2.55;0.98;;;7.70;99.90;;;;;;5091209;28;20028;-72
2022/11/04 06:40:49;;;;;;;2.60;0.90;;;7.80;99.90;;;;;;5091092;28;20131;-75
2022/11/04 06:43:15;;;;;;;6.30;1.30;;;7.80;99.90;;;;;;5091191;28;20195;-78
2022/11/04 06:45:41;;;;;;;4.38;1.13;;;7.90;99.90;;;;;;5091934;28;20481;-72
2022/11/04 06:48:06;;;;;;;1.23;0.75;;;7.90;99.90;;;;;;5090977;28;20032;-78
2022/11/04 06:50:32;;;;;;;2.00;0.90;;;8.00;99.90;;;;;;5090793;28;20024;-71
2022/11/04 06:52:58;;;;;;;2.38;0.90;;;8.00;99.90;;;;;;5091560;28;20380;-72
2022/11/04 06:55:23;;;;;;;1.50;1.00;;;8.00;99.90;;;;;;5090388;28;20642;-70
2022/11/04 06:57:49;;;;;;;2.40;0.73;;;8.00;99.90;;;;;;5091298;28;20032;-72
2022/11/04 07:00:15;;;;;;;2.42;1.00;;;8.10;99.90;;;;;;5090278;28;20032;-81
2022/11/04 07:02:41;;;;;;;4.88;1.08;;;8.20;99.90;;;;;;5073882;28;20036;-73
2022/11/04 07:05:07;;;;;;;2.88;0.90;;;8.30;99.90;;;;;;5089802;28;20024;-81
2022/11/04 07:07:33;;;;;;;2.30;1.05;;;8.40;99.90;;;;;;5091196;28;20118;-73
2022/11/04 07:09:59;;;;;;;2.28;1.40;;;8.40;99.90;;;;;;5090321;28;20429;-75
2022/11/04 07:12:25;;;;;;;2.85;0.95;;;8.50;99.90;;;;;;5072618;28;20083;-74
2022/11/04 07:14:51;;;;;;;4.55;1.05;;;8.50;99.90;;;;;;5091057;28;20393;-75
2022/11/04 07:17:16;;;;;;;1.67;0.73;;;8.50;99.90;;;;;;5072747;28;20100;-74
2022/11/04 07:19:42;;;;;;;4.55;1.30;;;8.50;99.90;;;;;;5091300;28;20032;-75
2022/11/04 07:22:07;;;;;;;4.53;1.10;;;8.50;99.90;;;;;;5089916;28;20027;-72
2022/11/04 07:24:34;;;;;;;2.45;1.30;;;8.50;99.90;;;;;;5090677;28;20138;-68
2022/11/04 07:26:59;;;;;;;5.75;1.50;;;8.50;99.90;;;;;;5084725;28;20048;-69
2022/11/04 07:29:25;;;;;;;1.45;0.65;;;8.50;99.90;;;;;;5088256;28;20116;-69
2022/11/04 07:31:51;;;;;;;2.92;1.00;;;8.50;99.90;;;;;;5090906;28;20055;-68
2022/11/04 07:34:16;;;;;;;2.92;0.90;;;8.50;99.90;;;;;;5089853;28;20027;-76
2022/11/04 07:36:42;;;;;;;2.33;1.10;;;8.50;99.90;;;;;;5090996;28;20052;-77
2022/11/04 07:39:08;;;;;;;3.33;1.23;;;8.50;99.90;;;;;;5089749;28;20461;-77
2022/11/04 07:41:33;;;;;;;3.78;1.00;;;8.50;99.90;;;;;;5090871;28;20032;-75
2022/11/04 07:44:01;;;;;;;1.50;0.80;;;8.50;99.90;;;;;;5091273;28;20027;-75
2022/11/04 07:46:27;;;;;;;3.33;1.00;;;8.60;99.90;;;;;;5072034;28;20641;-75
2022/11/04 07:48:57;;;;;;;3.90;0.98;;;8.60;99.90;;;;;;5091066;28;20035;-76
2022/11/04 07:51:23;;;;;;;2.50;0.80;;;8.60;99.90;;;;;;5089818;28;20032;-76
2022/11/04 07:53:49;;;;;;;1.00;0.82;;;8.70;99.90;;;;;;5091131;28;20055;-74
2022/11/04 07:56:15;;;;;;;0.90;0.70;;;8.80;99.90;;;;;;5089550;28;20030;-75
2022/11/04 07:58:41;;;;;;;0.90;0.80;;;8.90;99.90;;;;;;5092069;28;20028;-70
2022/11/04 08:01:13;;;;;;;3.90;0.82;;;8.90;99.90;;;;;;5089922;28;20069;-76
2022/11/04 08:03:39;;;;;;;3.03;0.90;;;9.00;99.90;;;;;;5091122;28;20384;-71
2022/11/04 08:06:07;;;;;;;2.30;1.00;;;9.10;99.90;;;;;;5090225;28;20039;-77
2022/11/04 08:08:33;;;;;;;3.53;0.82;;;9.20;99.90;;;;;;5090822;28;20028;-71
2022/11/04 08:11:02;;;;;;;1.65;0.95;;;9.20;99.90;;;;;;5090273;28;20028;-72
2022/11/04 08:13:29;;;;;;;2.58;0.77;;;9.30;99.90;;;;;;5090412;28;20020;-71
2022/11/04 08:15:55;;;;;;;5.05;0.57;;;9.40;99.90;;;;;;5093916;28;20604;-71
2022/11/04 08:18:21;;;;;;;0.93;0.73;;;9.50;99.90;;;;;;5093725;28;20115;-71
2022/11/04 08:20:49;;;;;;;2.47;0.85;;;9.50;99.90;;;;;;5094365;28;20213;-72
2022/11/04 08:23:15;;;;;;;2.50;0.75;;;9.70;99.90;;;;;;5094182;28;20038;-71
2022/11/04 08:25:41;;;;;;;2.50;0.90;;;9.70;99.90;;;;;;5094288;28;20137;-72
2022/11/04 08:28:06;;;;;;;3.50;0.70;;;9.90;99.90;;;;;;5093938;28;20491;-77
2022/11/04 08:30:32;;;;;;;2.83;1.00;;;9.90;99.90;;;;;;5093454;28;20024;-71
2022/11/04 08:32:58;;;;;;;2.65;0.75;;;10.00;99.90;;;;;;5094345;28;20024;-71
2022/11/04 08:35:24;;;;;;;1.52;0.93;;;10.10;99.90;;;;;;5093045;28;20028;-72
2022/11/04 08:37:50;;;;;;;2.67;0.75;;;10.20;99.90;;;;;;5093869;28;20060;-72
2022/11/04 08:40:15;;;;;;;0.80;0.70;;;10.40;99.90;;;;;;5092663;28;20035;-72
2022/11/04 08:42:41;;;;;;;1.40;0.77;;;10.50;99.90;;;;;;5094443;28;20026;-71
2022/11/04 08:45:07;;;;;;;0.65;0.52;;;10.60;99.90;;;;;;5092630;28;20036;-75
2022/11/04 08:47:33;;;;;;;1.75;0.75;;;10.70;99.90;;;;;;5075620;28;20032;-71
2022/11/04 08:49:58;;;;;;;1.15;0.50;;;10.80;99.90;;;;;;5093460;28;20038;-71
2022/11/04 08:52:24;;;;;;;3.95;0.75;;;10.80;99.90;;;;;;5093505;28;20062;-71
2022/11/04 08:54:53;;;;;;;2.40;0.63;;;10.90;99.90;;;;;;5092983;28;20063;-72
2022/11/04 08:57:19;;;;;;;3.75;0.93;;;11.00;99.90;;;;;;5093170;28;20050;-71
2022/11/04 08:59:44;;;;;;;1.33;0.70;;;11.00;99.90;;;;;;5093197;28;20427;-73
2022/11/04 09:02:13;;;;;;;5.45;1.13;;;11.10;99.90;;;;;;5092754;28;20082;-74
2022/11/04 09:04:39;;;;;;;2.08;0.60;;;11.10;99.90;;;;;;5093654;28;20540;-74
2022/11/04 09:07:05;;;;;;;3.10;0.88;;;11.10;99.90;;;;;;5093315;28;20070;-77
2022/11/04 09:09:31;;;;;;;1.85;0.80;;;11.20;99.90;;;;;;5092456;28;20031;-73
2022/11/04 09:11:57;;;;;;;1.85;0.60;;;11.20;99.90;;;;;;5093024;28;20385;-73
2022/11/04 09:14:22;;;;;;;3.78;0.90;;;11.20;99.90;;;;;;5092700;28;20077;-73
2022/11/04 09:16:48;;;;;;;2.58;0.73;;;11.20;99.90;;;;;;5093358;28;20035;-73
2022/11/04 09:19:14;;;;;;;3.08;0.98;;;11.20;99.90;;;;;;5092015;28;20162;-73
2022/11/04 09:21:39;;;;;;;3.25;0.75;;;11.20;99.90;;;;;;5092986;28;20390;-72
2022/11/04 09:24:10;;;;;;;1.90;0.88;;;11.30;99.90;;;;;;5092980;28;20031;-78
2022/11/04 09:26:36;;;;;;;1.55;0.85;;;11.30;99.90;;;;;;5091707;28;20031;-73
2022/11/04 09:29:01;;;;;;;2.67;0.60;;;11.40;99.90;;;;;;5093178;28;20032;-72
2022/11/04 09:31:29;;;;;;;2.05;1.17;;;11.50;99.90;;;;;;5073840;28;20020;-73
2022/11/04 09:33:54;;;;;;;2.80;0.93;;;11.50;99.90;;;;;;5093209;28;20028;-72
2022/11/04 09:36:20;;;;;;;3.53;1.00;;;11.50;99.90;;;;;;5091826;28;20475;-73
2022/11/04 09:38:46;;;;;;;10.57;1.20;;;11.60;99.90;;;;;;5092811;28;20032;-73
2022/11/04 09:41:30;;;;;;;1.73;0.80;;;11.60;99.90;;;;;;5073509;28;20027;-74
2022/11/04 09:44:13;;;;;;;2.42;1.15;;;11.60;99.90;;;;;;5093299;28;20052;-73
2022/11/04 09:46:39;;;;;;;3.63;1.40;;;11.80;99.90;;;;;;5093189;28;20043;-75
2022/11/04 09:49:09;;;;;;;3.95;1.20;;;11.90;99.90;;;;;;5088027;28;20035;-77
2022/11/04 09:51:36;;;;;;;2.35;1.27;;;12.00;99.90;;;;;;5092566;28;20073;-72
2022/11/04 09:54:09;;;;;;;1.20;1.08;;;12.00;99.90;;;;;;5092104;28;20056;-72
2022/11/04 09:56:41;;;;;;;3.25;1.08;;;12.10;99.90;;;;;;5092335;28;20035;-72
2022/11/04 09:59:10;;;;;;;3.78;1.13;;;12.10;99.90;;;;;;5092365;28;20362;-78
2022/11/04 10:01:49;;;;;;;0.77;0.50;;;12.10;99.90;;;;;;5092190;28;20384;-73
2022/11/04 10:04:40;;;;;;;2.83;0.95;;;12.20;99.90;;;;;;5091802;28;20107;-72
2022/11/04 10:07:21;;;;;;;1.58;0.60;;;12.40;99.90;;;;;;5092386;28;20027;-77
2022/11/04 10:10:05;;;;;;;1.42;0.85;;;12.40;99.90;;;;;;5091919;28;20024;-73
2022/11/04 10:13:05;;;;;;;0.85;0.50;;;12.70;99.90;;;;;;5091819;28;20043;-73
2022/11/04 10:15:48;;;;;;;3.88;1.13;;;12.80;99.90;;;;;;5079911;28;20539;-73
2022/11/04 10:18:44;;;;;;;2.58;0.85;;;12.90;99.90;;;;;;5079167;28;20028;-74
2022/11/04 10:21:28;;;;;;;3.38;0.90;;;13.00;99.90;;;;;;5082829;28;21619;-73
2022/11/04 10:24:05;;;;;;;2.92;0.80;;;13.10;99.90;;;;;;5089509;28;20141;-73
2022/11/04 10:26:40;;;;;;;5.05;1.00;;;13.10;99.90;;;;;;5090877;28;20028;-72
2022/11/04 10:29:15;;;;;;;5.32;0.90;;;13.00;99.90;;;;;;5084410;28;20024;-77
2022/11/04 10:31:43;;;;;;;2.17;0.88;;;13.00;99.90;;;;;;5092477;28;20042;-72
2022/11/04 10:34:32;;;;;;;2.03;0.90;;;13.00;99.90;;;;;;5091042;28;20020;-77
2022/11/04 10:36:57;;;;;;;4.80;1.02;;;13.00;99.90;;;;;;5090869;27;20048;-73
2022/11/04 10:39:30;;;;;;;6.97;1.13;;;12.90;99.90;;;;;;5089630;28;20036;-72
2022/11/04 10:41:57;;;;;;;2.67;0.90;;;12.90;99.90;;;;;;5091668;28;20026;-73
2022/11/04 10:44:28;;;;;;;2.88;0.80;;;12.80;99.90;;;;;;5088649;28;20028;-73
2022/11/04 10:47:20;;;;;;;2.53;1.10;;;12.80;99.90;;;;;;5085356;28;20113;-73
2022/11/04 10:50:10;;;;;;;4.00;1.05;;;12.90;99.90;;;;;;5064685;28;20546;-74
2022/11/04 10:52:36;;;;;;;8.18;1.17;;;13.00;99.90;;;;;;5091935;28;20035;-73
2022/11/04 10:55:13;;;;;;;3.60;0.90;;;13.20;99.90;;;;;;5080074;28;20056;-72
2022/11/04 10:57:39;;;;;;;5.25;1.27;;;13.20;99.90;;;;;;5078790;28;20035;-75
2022/11/04 11:00:05;;;;;;;3.90;0.98;;;13.30;99.90;;;;;;5091448;28;20415;-78
2022/11/04 11:02:37;;;;;;;3.78;1.10;;;13.30;99.90;;;;;;5091391;28;20020;-75
2022/11/04 11:05:38;;;;;;;4.70;1.42;;;13.40;99.90;;;;;;5093766;28;20020;-74
2022/11/04 11:08:04;;;;;;;4.28;0.90;;;13.40;99.90;;;;;;4992111;28;20038;-75
2022/11/04 11:10:33;;;;;;;2.63;0.95;;;13.40;99.90;;;;;;4988550;28;20092;-74
2022/11/04 11:13:03;;;;;;;5.00;1.17;;;13.30;99.90;;;;;;4989474;28;20121;-73
2022/11/04 11:15:33;;;;;;;4.93;0.95;;;13.30;99.90;;;;;;4987137;28;20053;-74
2022/11/04 11:18:05;;;;;;;3.53;1.10;;;13.20;99.90;;;;;;4975960;28;20613;-73
2022/11/04 11:20:32;;;;;;;4.13;1.05;;;13.20;99.90;;;;;;4984238;28;20187;-74
2022/11/04 11:23:00;;;;;;;2.72;0.75;;;13.10;99.90;;;;;;4988891;28;20035;-76
2022/11/04 11:25:44;;;;;;;2.75;1.13;;;13.00;99.90;;;;;;4988181;28;20182;-74
2022/11/04 11:28:19;;;;;;;5.60;1.00;;;13.10;99.90;;;;;;4988857;28;20041;-75
2022/11/04 11:30:45;;;;;;;3.88;0.90;;;13.10;99.90;;;;;;4989269;28;20515;-74
2022/11/04 11:33:16;;;;;;;6.28;1.48;;;13.00;99.90;;;;;;4988689;28;20508;-73
2022/11/04 11:35:51;;;;;;;7.40;1.52;;;13.00;99.90;;;;;;4988520;28;20034;-74
2022/11/04 11:38:28;;;;;;;6.07;1.00;;;13.00;99.90;;;;;;4960734;28;20065;-74
2022/11/04 11:41:17;;;;;;;3.03;1.08;;;12.90;99.90;;;;;;4989176;28;20085;-73
2022/11/04 11:43:48;;;;;;;7.15;1.05;;;12.90;99.90;;;;;;4989194;28;20034;-74
2022/11/04 11:46:30;;;;;;;6.63;1.10;;;12.90;99.90;;;;;;5079162;28;20098;-74
2022/11/04 11:49:02;;;;;;;4.38;1.02;;;12.90;99.90;;;;;;5090900;28;20036;-74
2022/11/04 11:51:33;;;;;;;4.00;1.00;;;13.00;99.90;;;;;;5094344;28;20034;-74
2022/11/04 11:54:28;;;;;;;6.90;1.17;;;13.00;99.90;;;;;;5094987;28;20024;-74
2022/11/04 11:56:56;;;;;;;3.67;1.10;;;13.10;99.90;;;;;;5096046;28;20455;-74
2022/11/04 11:59:24;;;;;;;3.15;0.70;;;13.10;99.90;;;;;;5094607;28;20036;-74
2022/11/04 12:01:59;;;;;;;4.40;1.10;;;13.20;99.90;;;;;;5095937;28;20098;-74
2022/11/04 12:04:25;;;;;;;3.95;0.90;;;13.20;99.90;;;;;;5080494;28;20102;-74
2022/11/04 12:07:15;;;;;;;5.95;1.30;;;13.40;99.90;;;;;;5099356;28;20020;-73
2022/11/04 12:10:02;;;;;;;4.75;1.45;;;13.60;99.90;;;;;;5094492;28;20028;-74
2022/11/04 12:12:43;;;;;;;2.50;1.15;;;13.60;99.90;;;;;;5019193;28;20739;-73
2022/11/04 12:15:34;;;;;;;4.15;0.95;;;13.60;99.90;;;;;;5093800;28;20077;-77
2022/11/04 12:18:08;;;;;;;2.60;0.85;;;13.60;99.90;;;;;;5064691;28;20118;-74
2022/11/04 12:20:45;;;;;;;4.05;0.80;;;13.70;99.90;;;;;;5074958;28;20495;-74
2022/11/04 12:23:28;;;;;;;4.18;0.90;;;13.80;99.90;;;;;;5093895;28;20066;-73
2022/11/04 12:25:59;;;;;;;6.20;0.90;;;13.80;99.90;;;;;;5094281;28;20024;-73
2022/11/04 12:28:48;;;;;;;3.65;1.27;;;13.70;99.90;;;;;;5093594;28;20558;-73
2022/11/04 12:31:16;;;;;;;5.20;1.10;;;13.70;99.90;;;;;;5021951;28;20032;-74
2022/11/04 12:33:46;;;;;;;6.43;1.23;;;13.60;99.90;;;;;;5094778;28;20032;-74
2022/11/04 12:36:19;;;;;;;4.65;1.08;;;13.60;99.90;;;;;;5092898;28;20048;-75
2022/11/04 12:39:07;;;;;;;4.18;1.25;;;13.60;99.90;;;;;;5094427;28;20043;-75
2022/11/04 12:41:51;;;;;;;3.90;1.00;;;13.60;99.90;;;;;;5092427;28;20028;-75
2022/11/04 12:44:20;;;;;;;5.30;1.30;;;13.60;99.90;;;;;;5092637;28;20361;-77
2022/11/04 12:46:45;;;;;;;6.00;1.10;;;13.60;99.90;;;;;;5093843;28;20457;-74
2022/11/04 12:49:23;;;;;;;4.13;1.08;;;13.60;99.90;;;;;;5091875;28;20132;-77
2022/11/04 12:52:39;;;;;;;5.75;1.17;;;13.60;99.90;;;;;;5093751;28;20418;-74
2022/11/04 12:55:42;;;;;;;2.42;0.80;;;13.60;99.90;;;;;;5064945;28;20047;-72
2022/11/04 12:58:22;;;;;;;8.52;1.30;;;13.70;99.90;;;;;;5093121;28;20111;-69
2022/11/04 13:00:54;;;;;;;4.80;0.77;;;13.80;99.90;;;;;;5089958;28;20052;-68
2022/11/04 13:03:29;;;;;;;5.60;1.00;;;13.80;99.90;;;;;;5090393;28;20123;-68
2022/11/04 13:06:03;;;;;;;6.57;1.17;;;13.90;99.90;;;;;;5093079;28;20376;-64
2022/11/04 13:08:51;;;;;;;2.75;0.82;;;13.90;99.90;;;;;;5092825;28;20020;-70
2022/11/04 13:11:34;;;;;;;4.97;1.15;;;13.90;99.90;;;;;;5091377;28;20038;-69
2022/11/04 13:14:06;;;;;;;3.55;0.90;;;14.00;99.90;;;;;;5093428;28;20103;-68
2022/11/04 13:16:37;;;;;;;4.95;1.10;;;14.00;99.90;;;;;;5086348;28;20024;-68
2022/11/04 13:19:06;;;;;;;2.95;0.93;;;14.10;99.90;;;;;;5082494;28;20473;-70
2022/11/04 13:21:36;;;;;;;5.22;1.00;;;14.10;99.90;;;;;;5086721;28;20028;-68
2022/11/04 13:24:21;;;;;;;3.73;1.07;;;14.10;99.90;;;;;;5095095;28;20024;-66
2022/11/04 13:26:47;;;;;;;4.25;1.17;;;14.20;99.90;;;;;;5093883;28;20466;-67
2022/11/04 13:29:15;;;;;;;4.57;1.42;;;14.20;99.90;;;;;;5092960;28;20028;-69
2022/11/04 13:32:25;;;;;;;7.47;1.00;;;14.20;99.90;;;;;;5083758;28;20111;-73
2022/11/04 13:35:07;;;;;;;5.35;1.55;;;14.10;99.90;;;;;;5025785;28;20037;-73
2022/11/04 13:37:43;;;;;;;4.28;1.13;;;14.00;99.90;;;;;;5027062;28;20168;-71
2022/11/04 13:40:17;;;;;;;3.47;1.08;;;13.90;99.90;;;;;;5028925;28;20445;-74
2022/11/04 13:42:51;;;;;;;5.05;1.25;;;13.80;99.90;;;;;;5013546;28;20108;-71
2022/11/04 13:45:19;;;;;;;3.92;1.17;;;13.60;99.90;;;;;;5028690;28;20364;-71